Time;durP1;ratioP1;P1;durP2;ratioP2;P2;SDS_P1;SDS_P2;PMS_P1;PMS_P2;Temp;Humidity;BMP_temperature;BMP_pressure;BME280_temperature;BME280_humidity;BME280_pressure;Samples;Min_cycle;Max_cycle;Signal;HPM_P1;HPM_P2
2021/10/13 08:00:45;;;;;;;2.03;0.90;;;;;;;9.27;99.67;99685.53;5097805;28;20594;-75
2021/10/13 08:03:13;;;;;;;1.70;1.37;;;;;;;11.86;92.83;99679.78;5083837;28;40072;-77
2021/10/13 08:05:41;;;;;;;0.80;0.80;;;;;;;13.33;80.38;99687.28;5069105;28;40522;-77
2021/10/13 08:08:09;;;;;;;0.97;0.90;;;;;;;13.70;74.98;99692.06;5084192;28;42758;-76
2021/10/13 08:10:37;;;;;;;1.17;1.00;;;;;;;13.34;74.62;99668.56;5066427;28;42816;-76
2021/10/13 08:16:15;;;;;;;0.93;0.90;;;;;;;13.17;74.98;99682.88;5057158;28;41805;-76
2021/10/13 08:18:44;;;;;;;1.90;1.00;;;;;;;13.02;74.86;99686.41;5084810;28;42817;-75
2021/10/13 08:21:11;;;;;;;1.40;1.00;;;;;;;12.76;75.24;99693.25;5083454;28;42055;-75
2021/10/13 08:23:39;;;;;;;1.10;0.80;;;;;;;12.55;75.27;99699.81;5084574;28;40274;-74
2021/10/13 08:26:06;;;;;;;28.43;12.80;;;;;;;12.32;75.96;99685.19;5085926;28;42677;-77
2021/10/13 08:28:35;;;;;;;3.87;2.47;;;;;;;12.12;76.20;99688.06;5084843;28;43643;-77
2021/10/13 08:31:03;;;;;;;1.30;1.07;;;;;;;12.05;75.64;99700.00;5084367;28;42346;-78
2021/10/13 08:33:32;;;;;;;1.43;1.07;;;;;;;11.97;75.91;99702.22;5066601;28;39038;-76
2021/10/13 08:36:02;;;;;;;0.93;0.77;;;;;;;12.50;75.36;99707.19;5083560;28;42922;-76
2021/10/13 08:38:30;;;;;;;0.80;0.80;;;;;;;13.93;72.09;99714.59;5066748;28;42845;-75
2021/10/13 08:40:57;;;;;;;1.43;1.10;;;;;;;15.51;67.55;99720.13;5065960;28;40985;-77
2021/10/13 08:43:27;;;;;;;1.67;1.37;;;;;;;15.73;67.77;99719.53;5066861;28;40276;-77
2021/10/13 08:45:54;;;;;;;1.30;1.20;;;;;;;15.92;66.72;99714.63;5067320;28;40618;-77
2021/10/13 08:48:21;;;;;;;1.17;1.07;;;;;;;16.28;64.84;99719.16;5083863;28;41697;-76
2021/10/13 08:50:51;;;;;;;1.20;1.10;;;;;;;16.69;63.84;99734.03;5084472;28;41217;-75
2021/10/13 08:53:20;;;;;;;1.07;1.00;;;;;;;17.04;62.04;99736.75;5117366;27;39942;-76
2021/10/13 08:55:49;;;;;;;1.30;1.20;;;;;;;17.08;60.85;99735.53;5085116;28;41702;-78
2021/10/13 08:58:19;;;;;;;1.50;1.20;;;;;;;17.08;60.99;99727.50;5083437;28;41590;-76
2021/10/13 09:00:49;;;;;;;1.83;1.27;;;;;;;16.97;60.39;99740.84;5084916;28;41383;-79
2021/10/13 09:03:36;;;;;;;1.20;1.03;;;;;;;16.87;59.65;99733.50;5083560;28;39987;-76
2021/10/13 09:06:16;;;;;;;1.20;1.10;;;;;;;16.73;60.13;99733.69;5084479;28;41675;-78
2021/10/13 09:08:58;;;;;;;2.60;1.00;;;;;;;16.54;58.29;99744.00;5118825;27;43700;-75
2021/10/13 09:11:34;;;;;;;1.47;1.37;;;;;;;16.14;59.29;99740.66;5074201;28;42134;-77
2021/10/13 09:14:10;;;;;;;0.80;0.80;;;;;;;15.66;60.20;99750.31;5072042;28;40915;-77
2021/10/13 09:16:54;;;;;;;1.10;1.00;;;;;;;15.07;60.67;99737.38;5071458;28;41763;-79
2021/10/13 09:19:24;;;;;;;2.10;0.80;;;;;;;14.56;62.08;99723.00;5070547;28;42870;-78
2021/10/13 09:21:54;;;;;;;1.50;1.10;;;;;;;14.17;63.64;99728.19;5069117;28;41462;-77
2021/10/13 09:24:24;;;;;;;1.30;0.97;;;;;;;13.90;63.50;99736.94;5070356;28;39987;-74
2021/10/13 09:26:53;;;;;;;1.53;1.23;;;;;;;13.83;64.49;99713.47;5070058;28;41596;-76
2021/10/13 09:29:21;;;;;;;1.33;1.23;;;;;;;13.94;64.93;99727.81;5069764;28;42020;-76
2021/10/13 09:31:56;;;;;;;2.10;1.20;;;;;;;14.07;64.97;99729.72;5069846;28;42084;-75
2021/10/13 09:34:24;;;;;;;1.13;1.03;;;;;;;14.21;64.80;99730.56;5070387;28;38893;-75
2021/10/13 09:36:59;;;;;;;1.30;1.07;;;;;;;14.61;63.70;99736.84;5103954;28;42986;-76
2021/10/13 09:39:29;;;;;;;1.20;1.10;;;;;;;14.77;62.61;99739.38;5071217;28;42955;-77
2021/10/13 09:42:00;;;;;;;4.50;1.33;;;;;;;14.83;62.23;99739.00;5076285;28;41837;-77
2021/10/13 09:44:29;;;;;;;0.90;0.90;;;;;;;14.81;62.49;99719.56;5051895;28;40917;-76
2021/10/13 09:46:59;;;;;;;1.00;1.00;;;;;;;14.97;62.49;99728.25;5056537;28;40971;-78
2021/10/13 09:49:31;;;;;;;1.10;0.97;;;;;;;14.96;62.28;99742.53;5053183;28;41517;-76
2021/10/13 09:52:09;;;;;;;0.63;0.63;;;;;;;15.14;62.08;99736.94;5082976;28;43168;-77
2021/10/13 09:54:37;;;;;;;0.87;0.80;;;;;;;15.39;61.67;99737.00;5049989;28;40025;-76
2021/10/13 09:57:16;;;;;;;0.80;0.80;;;;;;;15.70;61.12;99736.59;5047214;28;42033;-82
2021/10/13 09:59:58;;;;;;;1.10;0.80;;;;;;;15.82;59.69;99747.44;5069418;28;41739;-76
2021/10/13 10:02:28;;;;;;;0.70;0.67;;;;;;;15.99;57.27;99758.63;5048056;28;42158;-79
2021/10/13 10:04:57;;;;;;;0.80;0.80;;;;;;;16.09;58.32;99753.47;5033601;28;39023;-84
2021/10/13 10:07:26;;;;;;;0.80;0.80;;;;;;;15.84;57.61;99759.69;5059421;28;40694;-75
2021/10/13 10:10:12;;;;;;;1.33;1.03;;;;;;;15.58;58.15;99758.81;5052557;28;42250;-76
2021/10/13 10:13:07;;;;;;;1.40;0.97;;;;;;;15.29;59.22;99759.94;5068048;28;40871;-76
2021/10/13 10:15:38;;;;;;;1.90;1.17;;;;;;;15.05;59.61;99755.28;5028785;28;39169;-76
2021/10/13 10:18:31;;;;;;;0.70;0.60;;;;;;;15.38;58.93;99765.50;5085367;28;40632;-76
2021/10/13 10:21:17;;;;;;;0.80;0.80;;;;;;;16.92;55.92;99780.50;5067467;28;42330;-79
2021/10/13 10:23:47;;;;;;;0.50;0.50;;;;;;;17.90;53.83;99785.50;5083992;28;43271;-77
2021/10/13 10:26:30;;;;;;;1.03;0.80;;;;;;;18.14;53.04;99796.97;5083957;28;40306;-77
2021/10/13 10:28:59;;;;;;;0.60;0.60;;;;;;;18.39;52.00;99795.03;5070259;28;41884;-79
2021/10/13 10:31:36;;;;;;;1.67;1.00;;;;;;;18.85;50.86;99806.47;5049417;28;41571;-80
2021/10/13 10:34:10;;;;;;;0.63;0.63;;;;;;;18.86;49.54;99805.50;5083793;28;41921;-87
2021/10/13 10:37:29;;;;;;;1.97;0.77;;;;;;;19.10;50.19;99799.94;5054776;28;39251;-83
2021/10/13 10:40:05;;;;;;;0.70;0.70;;;;;;;19.02;49.74;99792.53;5034025;28;41411;-82
2021/10/13 10:43:02;;;;;;;0.87;0.70;;;;;;;18.51;49.92;99796.72;5049932;28;41814;-82
2021/10/13 10:45:36;;;;;;;0.80;0.80;;;;;;;17.92;50.53;99772.84;5038697;28;41438;-79
2021/10/13 10:48:17;;;;;;;0.70;0.70;;;;;;;17.78;50.76;99781.09;5056450;28;38696;-79
2021/10/13 10:51:00;;;;;;;0.70;0.70;;;;;;;18.81;50.32;99788.03;5090298;28;41090;-78
2021/10/13 10:53:38;;;;;;;4.40;2.77;;;;;;;19.46;48.43;99789.78;5081914;28;42850;-75
2021/10/13 10:56:20;;;;;;;2.20;1.70;;;;;;;19.20;47.64;99805.41;5067497;28;42378;-75
2021/10/13 10:59:07;;;;;;;0.80;0.80;;;;;;;19.26;47.57;99799.53;5071314;28;39844;-78
2021/10/13 11:01:35;;;;;;;0.50;0.50;;;;;;;20.94;46.30;99796.53;5071242;28;40847;-80
2021/10/13 11:04:21;;;;;;;1.73;0.70;;;;;;;21.28;44.78;99805.13;5069406;28;43705;-81
2021/10/13 11:06:48;;;;;;;0.40;0.40;;;;;;;20.30;44.60;99796.84;5072021;28;43150;-77
2021/10/13 11:09:23;;;;;;;0.50;0.47;;;;;;;19.49;45.79;99789.56;5068866;28;38561;-80
2021/10/13 11:11:53;;;;;;;0.40;0.40;;;;;;;18.95;47.59;99790.44;5086467;28;42438;-81
2021/10/13 11:14:24;;;;;;;0.70;0.70;;;;;;;18.49;48.71;99777.22;5070217;28;43178;-80
2021/10/13 11:16:56;;;;;;;1.07;0.40;;;;;;;18.18;48.86;99790.38;5069621;28;42417;-79
2021/10/13 11:19:27;;;;;;;0.40;0.40;;;;;;;18.63;49.85;99779.69;5069995;28;40007;-77
2021/10/13 11:21:57;;;;;;;0.63;0.63;;;;;;;19.36;46.83;99789.72;5070763;28;42585;-78
2021/10/13 11:24:25;;;;;;;0.60;0.60;;;;;;;21.34;44.65;99804.56;5069812;28;42694;-82
2021/10/13 11:26:54;;;;;;;0.53;0.50;;;;;;;24.05;39.13;99840.19;5089283;28;42476;-80
2021/10/13 11:29:24;;;;;;;0.40;0.40;;;;;;;26.02;34.45;99867.75;5054532;28;39119;-78
2021/10/13 11:32:07;;;;;;;0.40;0.40;;;;;;;24.93;35.21;99849.88;5049363;28;42072;-77
2021/10/13 11:34:35;;;;;;;1.20;0.70;;;;;;;23.49;35.77;99852.19;5052409;28;41417;-78
2021/10/13 11:37:03;;;;;;;1.80;0.70;;;;;;;23.07;37.74;99833.81;5056987;28;40685;-78
2021/10/13 11:39:37;;;;;;;0.60;0.60;;;;;;;26.14;32.97;99857.38;5070453;28;40795;-82
2021/10/13 11:42:14;;;;;;;0.50;0.50;;;;;;;29.25;29.25;99875.88;5075174;28;40583;-78
2021/10/13 11:44:48;;;;;;;0.50;0.50;;;;;;;31.82;26.37;99882.47;5073065;28;42562;-81
2021/10/13 11:47:16;;;;;;;0.93;0.40;;;;;;;33.50;24.68;99868.97;5072266;28;42249;-79
2021/10/13 11:49:55;;;;;;;0.70;0.70;;;;;;;33.03;22.76;99882.00;5072273;28;38759;-78
2021/10/13 11:52:22;;;;;;;0.73;0.60;;;;;;;32.99;23.70;99878.03;5071376;28;41688;-79
2021/10/13 11:54:59;;;;;;;0.40;0.40;;;;;;;32.06;24.44;99862.69;5069817;28;42717;-82
2021/10/13 11:57:29;;;;;;;0.43;0.40;;;;;;;30.14;25.57;99844.53;5067094;28;43086;-83
2021/10/13 12:00:14;;;;;;;0.83;0.83;;;;;;;28.33;28.15;99836.38;5051032;28;38821;-84
2021/10/13 12:02:42;;;;;;;0.73;0.50;;;;;;;27.67;28.62;99835.25;5036199;28;40958;-77
2021/10/13 12:05:19;;;;;;;0.53;0.53;;;;;;;27.89;28.50;99834.41;5068618;28;42785;-83
2021/10/13 12:07:50;;;;;;;2.00;0.57;;;;;;;28.40;28.46;99799.19;5051237;28;41413;-83
2021/10/13 12:10:18;;;;;;;0.50;0.50;;;;;;;28.30;27.95;99832.19;5051862;28;39254;-82
2021/10/13 12:13:02;;;;;;;1.57;0.60;;;;;;;28.63;27.07;99840.00;5085558;28;40911;-79
2021/10/13 12:15:36;;;;;;;0.67;0.50;;;;;;;28.43;27.56;99828.81;5084495;28;42764;-86
2021/10/13 12:18:19;;;;;;;0.60;0.60;;;;;;;30.92;25.78;99837.88;5084493;28;42009;-84
2021/10/13 12:20:49;;;;;;;0.53;0.53;;;;;;;33.04;24.34;99845.25;5069295;28;40070;-84
2021/10/13 12:23:19;;;;;;;0.80;0.80;;;;;;;33.83;21.43;99861.38;5084770;28;40741;-85
2021/10/13 12:25:48;;;;;;;0.87;0.87;;;;;;;33.37;21.63;99838.81;5085771;28;41695;-85
2021/10/13 12:28:19;;;;;;;0.60;0.60;;;;;;;32.67;22.24;99845.97;5066990;28;41221;-79
2021/10/13 12:30:55;;;;;;;0.93;0.60;;;;;;;30.64;24.33;99846.16;5051454;28;38873;-78
2021/10/13 12:33:23;;;;;;;0.40;0.40;;;;;;;28.80;25.70;99831.47;5067555;28;40545;-76
2021/10/13 12:35:51;;;;;;;0.40;0.40;;;;;;;27.22;26.94;99815.09;5067620;28;41664;-77
2021/10/13 12:38:21;;;;;;;0.30;0.30;;;;;;;25.99;28.84;99805.63;5068465;28;41114;-76
2021/10/13 12:41:06;;;;;;;0.40;0.40;;;;;;;24.94;30.54;99800.09;5068165;28;39951;-78
2021/10/13 12:43:41;;;;;;;0.57;0.40;;;;;;;24.09;31.00;99799.13;5081440;28;41681;-82
2021/10/13 12:46:24;;;;;;;0.70;0.40;;;;;;;23.35;32.21;99790.53;5031820;28;41685;-77
2021/10/13 12:48:52;;;;;;;1.30;0.50;;;;;;;24.16;32.31;99786.63;5034556;28;44962;-75
2021/10/13 12:51:20;;;;;;;0.47;0.43;;;;;;;24.64;31.20;99777.94;5068139;28;40295;-77
2021/10/13 12:53:49;;;;;;;0.43;0.43;;;;;;;24.60;32.05;99781.97;5071895;28;41687;-76
2021/10/13 12:56:18;;;;;;;0.37;0.37;;;;;;;26.58;29.40;99806.22;5069139;28;41611;-76
2021/10/13 12:58:48;;;;;;;0.40;0.40;;;;;;;28.01;26.63;99819.31;5071387;28;42278;-77
2021/10/13 13:01:16;;;;;;;0.40;0.40;;;;;;;29.36;25.75;99817.22;5070526;28;40016;-77
2021/10/13 13:03:44;;;;;;;0.53;0.53;;;;;;;28.65;25.46;99829.75;5071301;28;41719;-78
2021/10/13 13:06:11;;;;;;;0.57;0.57;;;;;;;27.27;26.84;99825.47;5070239;28;41479;-78
2021/10/13 13:08:41;;;;;;;0.77;0.40;;;;;;;25.86;28.20;99824.31;5072177;28;42489;-77
2021/10/13 13:11:09;;;;;;;1.20;0.70;;;;;;;24.56;30.19;99799.56;5069041;28;39592;-78
2021/10/13 13:13:37;;;;;;;0.50;0.50;;;;;;;23.48;31.39;99793.69;5068747;28;41693;-79
2021/10/13 13:16:06;;;;;;;1.07;0.50;;;;;;;22.49;33.01;99780.09;5053397;28;41978;-77
2021/10/13 13:18:34;;;;;;;1.00;0.47;;;;;;;21.68;34.82;99776.16;5086820;28;41136;-76
2021/10/13 13:21:01;;;;;;;0.60;0.60;;;;;;;20.84;35.65;99755.28;5070928;28;39128;-78
2021/10/13 13:23:29;;;;;;;2.23;0.50;;;;;;;20.44;36.87;99759.72;5053310;28;40568;-76
2021/10/13 13:25:57;;;;;;;0.50;0.50;;;;;;;22.00;36.05;99748.03;5070188;28;43647;-77
2021/10/13 13:28:24;;;;;;;0.57;0.57;;;;;;;22.43;34.84;99750.97;5067342;28;41249;-75
2021/10/13 13:30:52;;;;;;;0.53;0.50;;;;;;;22.67;34.10;99768.47;5071071;28;39478;-77
2021/10/13 13:33:21;;;;;;;0.60;0.60;;;;;;;22.91;34.68;99766.09;5069286;28;40620;-76
2021/10/13 13:35:49;;;;;;;0.40;0.40;;;;;;;22.71;35.27;99769.88;5070523;28;43010;-76
2021/10/13 13:38:16;;;;;;;0.57;0.57;;;;;;;22.44;34.49;99763.47;5068633;28;42261;-75
2021/10/13 13:40:44;;;;;;;1.33;0.70;;;;;;;21.92;33.12;99772.16;5069787;28;40007;-77
2021/10/13 13:43:11;;;;;;;0.50;0.50;;;;;;;21.61;34.36;99780.44;5052729;28;40644;-79
2021/10/13 13:45:39;;;;;;;6.70;2.83;;;;;;;21.19;35.14;99762.84;5071406;28;43693;-79
2021/10/13 13:48:07;;;;;;;2.00;1.17;;;;;;;20.79;35.98;99756.53;5052620;28;42056;-79
2021/10/13 13:50:36;;;;;;;0.83;0.60;;;;;;;20.29;36.26;99768.25;5070748;28;40665;-77
2021/10/13 13:53:04;;;;;;;0.80;0.40;;;;;;;19.75;36.81;99757.78;5051261;28;42192;-76
2021/10/13 13:55:31;;;;;;;0.50;0.50;;;;;;;19.31;38.22;99760.53;5050225;28;41716;-76
2021/10/13 13:57:59;;;;;;;1.37;0.50;;;;;;;18.63;40.23;99742.97;5051070;28;40738;-77
2021/10/13 14:00:26;;;;;;;0.57;0.57;;;;;;;18.04;41.99;99750.44;5067852;28;40903;-79
2021/10/13 14:02:54;;;;;;;1.30;0.70;;;;;;;17.59;42.86;99744.09;5068241;28;41681;-78
2021/10/13 14:05:22;;;;;;;0.60;0.60;;;;;;;17.44;42.71;99745.28;5052441;28;43003;-78
2021/10/13 14:07:51;;;;;;;0.87;0.60;;;;;;;17.27;44.17;99748.41;5068839;28;41125;-76
2021/10/13 14:10:19;;;;;;;0.50;0.50;;;;;;;17.09;45.07;99730.06;5070698;28;40703;-77
2021/10/13 14:12:46;;;;;;;2.93;0.90;;;;;;;16.97;45.60;99735.50;5070049;28;40350;-77
2021/10/13 14:15:14;;;;;;;0.60;0.60;;;;;;;16.76;45.80;99714.72;5068894;28;43049;-81
2021/10/13 14:17:42;;;;;;;0.50;0.50;;;;;;;16.81;46.33;99731.28;5069902;28;41054;-77
2021/10/13 14:20:11;;;;;;;0.33;0.33;;;;;;;16.85;46.59;99738.13;5052308;28;39741;-77
2021/10/13 14:22:38;;;;;;;0.60;0.60;;;;;;;16.84;46.04;99725.72;5053108;28;41615;-77
2021/10/13 14:25:08;;;;;;;0.67;0.67;;;;;;;16.97;45.96;99732.81;5070687;28;42799;-77
2021/10/13 14:27:36;;;;;;;0.50;0.50;;;;;;;17.06;44.72;99757.06;5051997;28;41431;-77
2021/10/13 14:30:04;;;;;;;0.83;0.50;;;;;;;17.01;44.60;99753.03;5070407;28;40037;-78
2021/10/13 14:32:31;;;;;;;0.37;0.37;;;;;;;16.99;45.17;99760.31;5070085;28;41858;-76
2021/10/13 14:34:59;;;;;;;0.30;0.30;;;;;;;16.97;44.94;99762.25;5069640;28;42643;-78
2021/10/13 14:37:26;;;;;;;0.43;0.43;;;;;;;16.95;45.54;99756.16;5070101;28;42428;-78
2021/10/13 14:39:55;;;;;;;4.00;1.60;;;;;;;16.94;45.75;99749.13;5070124;28;39864;-77
2021/10/13 14:42:25;;;;;;;1.10;1.07;;;;;;;16.91;45.29;99752.03;5051974;28;41721;-76
2021/10/13 14:44:56;;;;;;;0.60;0.60;;;;;;;16.85;45.24;99751.50;5070426;28;43737;-77
2021/10/13 14:47:25;;;;;;;1.33;0.80;;;;;;;16.76;45.68;99737.94;5068702;28;41409;-78
2021/10/13 14:49:52;;;;;;;0.40;0.40;;;;;;;16.80;45.23;99756.34;5052852;28;39854;-76
2021/10/13 14:52:20;;;;;;;0.40;0.40;;;;;;;16.79;45.40;99749.28;5051497;28;40652;-77
2021/10/13 14:54:47;;;;;;;0.60;0.60;;;;;;;16.61;46.30;99726.53;5069444;28;42733;-76
2021/10/13 14:57:15;;;;;;;1.37;1.27;;;;;;;16.61;46.27;99745.25;5069386;28;42280;-79
2021/10/13 14:59:44;;;;;;;0.40;0.40;;;;;;;16.55;46.71;99750.19;5070291;28;39901;-77
2021/10/13 15:02:13;;;;;;;0.50;0.50;;;;;;;16.45;47.08;99755.34;5069132;28;43777;-79
2021/10/13 15:04:43;;;;;;;0.50;0.50;;;;;;;16.33;46.70;99749.06;5051594;28;42739;-76
2021/10/13 15:07:10;;;;;;;0.40;0.40;;;;;;;16.11;47.68;99730.19;5066899;28;41166;-76
2021/10/13 15:09:39;;;;;;;1.43;0.80;;;;;;;15.92;47.55;99724.44;5051158;28;38824;-78
2021/10/13 15:12:06;;;;;;;1.67;0.63;;;;;;;15.95;48.33;99735.75;5046140;28;41211;-77
2021/10/13 15:14:37;;;;;;;1.40;0.50;;;;;;;15.81;49.60;99743.91;5067662;28;42811;-76
2021/10/13 15:17:07;;;;;;;3.03;0.90;;;;;;;15.66;49.38;99739.63;5050158;28;42511;-77
2021/10/13 15:19:34;;;;;;;1.00;0.80;;;;;;;15.52;49.83;99737.00;5066858;28;43187;-77
2021/10/13 15:22:03;;;;;;;1.00;0.83;;;;;;;15.41;49.96;99746.63;5067001;28;41680;-79
2021/10/13 15:24:34;;;;;;;0.80;0.80;;;;;;;15.24;50.23;99736.22;5065997;28;44067;-76
2021/10/13 15:27:01;;;;;;;0.83;0.60;;;;;;;15.05;51.17;99733.09;5066382;28;41045;-76
2021/10/13 15:29:29;;;;;;;0.57;0.53;;;;;;;14.83;51.39;99728.34;5067909;28;40147;-77
2021/10/13 15:31:58;;;;;;;1.80;0.77;;;;;;;14.61;51.78;99723.53;5067380;28;40680;-76
2021/10/13 15:34:28;;;;;;;0.60;0.60;;;;;;;14.45;51.83;99721.97;5049700;28;43646;-76
2021/10/13 15:36:56;;;;;;;0.60;0.50;;;;;;;14.26;52.24;99719.59;5049598;28;42973;-77
2021/10/13 15:39:25;;;;;;;1.50;0.90;;;;;;;14.09;52.64;99723.34;5067719;28;41070;-76
2021/10/13 15:41:53;;;;;;;0.40;0.40;;;;;;;13.94;52.53;99727.81;5067943;28;43017;-75
2021/10/13 15:44:21;;;;;;;0.40;0.40;;;;;;;13.81;52.51;99726.88;5067340;28;42790;-76
2021/10/13 15:46:49;;;;;;;1.30;0.80;;;;;;;13.66;52.69;99736.66;5065787;28;42967;-75
2021/10/13 15:49:16;;;;;;;0.60;0.60;;;;;;;13.50;53.60;99729.69;5067594;28;40929;-77
2021/10/13 15:51:47;;;;;;;0.40;0.40;;;;;;;13.17;53.71;99709.47;5048381;28;42587;-76
2021/10/13 15:54:15;;;;;;;2.33;0.83;;;;;;;12.87;54.07;99695.28;5067850;28;42787;-76
2021/10/13 15:56:44;;;;;;;0.90;0.50;;;;;;;12.94;54.30;99729.41;5049378;28;43144;-74
2021/10/13 15:59:12;;;;;;;1.17;0.80;;;;;;;12.81;54.59;99738.19;5066539;28;40012;-76
2021/10/13 16:01:40;;;;;;;0.73;0.70;;;;;;;12.72;54.88;99741.38;5049588;28;40777;-74
2021/10/13 16:04:07;;;;;;;1.90;0.60;;;;;;;12.67;54.67;99751.41;5067917;28;43710;-77
2021/10/13 16:06:36;;;;;;;0.60;0.60;;;;;;;12.50;55.10;99739.06;5068856;28;42193;-76
2021/10/13 16:09:06;;;;;;;0.57;0.57;;;;;;;12.45;55.39;99739.34;5073769;28;39984;-77
2021/10/13 16:11:33;;;;;;;0.40;0.40;;;;;;;12.50;55.27;99758.50;5065866;28;41713;-75
2021/10/13 16:14:01;;;;;;;0.83;0.57;;;;;;;12.48;55.57;99757.78;5065974;28;43524;-76
2021/10/13 16:16:28;;;;;;;0.87;0.70;;;;;;;12.34;56.44;99741.75;5049201;28;42183;-77
2021/10/13 16:18:56;;;;;;;1.20;0.70;;;;;;;12.31;56.81;99755.19;5066346;28;40193;-75
2021/10/13 16:21:24;;;;;;;0.57;0.50;;;;;;;12.25;57.45;99760.81;5065721;28;41137;-75
2021/10/13 16:23:52;;;;;;;0.80;0.80;;;;;;;12.22;57.92;99755.69;5070353;28;42608;-76
2021/10/13 16:26:22;;;;;;;0.90;0.90;;;;;;;12.09;57.65;99738.72;5052095;28;42656;-75
2021/10/13 16:28:49;;;;;;;1.10;1.00;;;;;;;12.11;57.67;99763.41;5051881;28;40120;-75
2021/10/13 16:31:17;;;;;;;0.80;0.80;;;;;;;12.06;58.57;99754.81;5069638;28;40921;-76
2021/10/13 16:33:45;;;;;;;1.23;0.80;;;;;;;11.85;59.43;99731.16;5052764;28;41136;-76
2021/10/13 16:36:13;;;;;;;1.70;1.00;;;;;;;11.93;60.21;99737.81;5070902;28;42226;-75
2021/10/13 16:38:40;;;;;;;1.00;0.90;;;;;;;11.94;59.48;99758.97;5071349;28;40932;-75
2021/10/13 16:41:09;;;;;;;1.10;0.80;;;;;;;11.91;59.45;99763.59;5070205;28;40687;-77
2021/10/13 16:43:42;;;;;;;1.00;1.00;;;;;;;11.74;59.45;99746.75;5070643;28;42861;-78
2021/10/13 16:46:11;;;;;;;1.20;0.90;;;;;;;11.70;59.19;99750.50;5067532;28;42554;-77
2021/10/13 16:48:39;;;;;;;1.10;0.93;;;;;;;11.68;59.38;99770.94;5070044;28;39987;-75
2021/10/13 16:51:07;;;;;;;0.90;0.90;;;;;;;11.59;59.30;99771.44;5052674;28;41284;-77
2021/10/13 16:53:35;;;;;;;0.50;0.50;;;;;;;11.49;59.50;99768.41;5036341;28;41109;-75
2021/10/13 16:56:02;;;;;;;0.70;0.70;;;;;;;11.37;60.04;99768.19;5070779;28;42287;-76
2021/10/13 16:58:30;;;;;;;0.77;0.77;;;;;;;11.33;60.69;99764.81;5071236;28;39555;-75
2021/10/13 17:00:59;;;;;;;1.07;0.97;;;;;;;11.29;60.37;99775.66;5069822;28;43250;-75
2021/10/13 17:03:27;;;;;;;1.73;1.13;;;;;;;11.26;61.23;99781.97;5071345;28;42628;-76
2021/10/13 17:05:54;;;;;;;1.33;0.97;;;;;;;11.23;60.76;99778.63;5069406;28;43139;-75
2021/10/13 17:08:21;;;;;;;2.03;1.17;;;;;;;11.23;60.40;99789.22;5070424;28;38820;-74
2021/10/13 17:10:49;;;;;;;1.20;0.87;;;;;;;11.26;60.98;99794.34;5070548;28;41786;-75
2021/10/13 17:13:16;;;;;;;2.63;1.30;;;;;;;11.23;61.14;99794.53;5052752;28;42021;-74
2021/10/13 17:15:44;;;;;;;1.60;1.30;;;;;;;11.24;60.84;99797.13;5070325;28;43670;-75
2021/10/13 17:18:13;;;;;;;1.30;1.07;;;;;;;11.25;61.06;99803.28;5071300;28;40654;-78
2021/10/13 17:20:40;;;;;;;1.20;1.10;;;;;;;11.16;60.93;99791.31;5070178;28;42653;-76
2021/10/13 17:23:08;;;;;;;1.63;1.43;;;;;;;11.15;61.29;99801.06;5070102;28;42858;-76
2021/10/13 17:25:35;;;;;;;2.00;1.40;;;;;;;11.11;61.20;99806.63;5052222;28;42538;-75
2021/10/13 17:28:05;;;;;;;1.37;1.27;;;;;;;10.98;61.73;99795.75;5070678;28;40574;-75
2021/10/13 17:30:32;;;;;;;1.10;0.80;;;;;;;10.92;62.50;99797.84;5071223;28;41680;-75
2021/10/13 17:33:00;;;;;;;0.90;0.90;;;;;;;10.82;62.23;99807.16;5051939;28;42716;-75
2021/10/13 17:35:29;;;;;;;1.73;0.70;;;;;;;10.72;62.28;99809.41;5052852;28;42567;-75
2021/10/13 17:37:57;;;;;;;1.80;1.00;;;;;;;10.57;62.38;99805.69;5069315;28;39050;-76
2021/10/13 17:40:25;;;;;;;0.90;0.90;;;;;;;10.55;62.39;99809.34;5069252;28;41375;-76
2021/10/13 17:42:53;;;;;;;1.40;1.30;;;;;;;10.52;62.46;99812.13;5051496;28;42047;-75
2021/10/13 17:45:24;;;;;;;1.53;1.10;;;;;;;10.51;62.94;99810.44;5052673;28;41531;-75
2021/10/13 17:47:53;;;;;;;0.90;0.77;;;;;;;10.52;63.10;99809.47;5052523;28;38941;-76
2021/10/13 17:50:20;;;;;;;0.57;0.57;;;;;;;10.55;63.26;99807.53;5051578;28;41741;-76
2021/10/13 17:52:49;;;;;;;0.70;0.70;;;;;;;10.58;62.56;99806.53;5052825;28;42321;-75
2021/10/13 17:55:17;;;;;;;0.90;0.90;;;;;;;10.60;63.16;99804.69;5068286;28;41806;-75
2021/10/13 17:57:44;;;;;;;1.27;1.00;;;;;;;10.63;63.37;99808.03;5070193;28;40971;-76
2021/10/13 18:00:13;;;;;;;0.80;0.80;;;;;;;10.57;63.29;99794.22;5068492;28;42984;-76
2021/10/13 18:02:41;;;;;;;0.83;0.83;;;;;;;10.69;63.08;99812.19;5069316;28;44060;-76
2021/10/13 18:05:09;;;;;;;1.70;1.10;;;;;;;10.73;63.16;99817.28;5068481;28;41171;-77
2021/10/13 18:07:38;;;;;;;2.57;0.90;;;;;;;10.68;63.12;99813.13;5069434;28;40240;-76
2021/10/13 18:10:08;;;;;;;0.93;0.80;;;;;;;10.77;63.03;99828.56;5068191;28;41554;-75
2021/10/13 18:12:36;;;;;;;0.93;0.93;;;;;;;10.77;63.09;99820.63;5068276;28;42077;-75
2021/10/13 18:15:05;;;;;;;1.00;0.80;;;;;;;10.75;63.27;99814.56;5051170;28;42309;-78
2021/10/13 18:17:32;;;;;;;1.07;0.97;;;;;;;10.78;63.29;99828.50;5068906;28;39999;-76
2021/10/13 18:20:00;;;;;;;2.80;1.00;;;;;;;10.80;63.16;99824.00;5067924;28;42066;-76
2021/10/13 18:22:27;;;;;;;1.00;0.90;;;;;;;10.69;63.30;99812.19;5070076;28;43728;-76
2021/10/13 18:24:54;;;;;;;0.93;0.70;;;;;;;10.81;62.88;99835.44;5069087;28;43786;-76
2021/10/13 18:27:24;;;;;;;0.87;0.70;;;;;;;10.88;62.58;99838.69;5050071;28;39096;-75
2021/10/13 18:29:52;;;;;;;0.77;0.70;;;;;;;10.87;62.66;99840.47;5068576;28;42426;-76
2021/10/13 18:32:24;;;;;;;0.77;0.73;;;;;;;10.89;63.03;99843.88;5067607;28;44521;-76
2021/10/13 18:34:51;;;;;;;3.37;2.17;;;;;;;10.93;63.40;99837.50;5049963;28;42194;-77
2021/10/13 18:37:19;;;;;;;8.23;4.27;;;;;;;10.95;62.85;99840.97;5067187;28;40794;-76
2021/10/13 18:39:46;;;;;;;6.20;3.20;;;;;;;10.97;62.73;99847.03;5048939;28;41048;-76
2021/10/13 18:42:17;;;;;;;3.10;2.13;;;;;;;10.99;62.98;99847.84;5066709;28;43766;-76
2021/10/13 18:44:46;;;;;;;2.50;1.33;;;;;;;10.96;63.33;99840.03;5067673;28;42897;-76
2021/10/13 18:47:14;;;;;;;1.13;0.90;;;;;;;10.90;63.60;99828.84;5067164;28;40708;-76
2021/10/13 18:49:42;;;;;;;1.30;1.20;;;;;;;10.65;64.18;99789.41;5050090;28;41675;-76
2021/10/13 18:52:09;;;;;;;1.57;1.00;;;;;;;10.93;63.72;99837.50;5068082;28;43320;-76
2021/10/13 18:54:37;;;;;;;1.07;0.97;;;;;;;10.78;63.89;99823.19;5049086;28;41751;-77
2021/10/13 18:57:07;;;;;;;1.73;0.83;;;;;;;10.79;64.11;99832.88;5066952;28;39225;-77
2021/10/13 18:59:36;;;;;;;1.87;1.17;;;;;;;10.73;64.39;99837.63;5068618;28;41961;-77
2021/10/13 19:02:05;;;;;;;1.17;1.07;;;;;;;10.69;64.63;99836.03;5050375;28;42635;-77
2021/10/13 19:04:34;;;;;;;1.50;0.97;;;;;;;10.69;64.05;99838.69;5067897;28;42516;-76
2021/10/13 19:07:02;;;;;;;1.80;0.90;;;;;;;10.28;64.28;99769.97;5067098;28;40181;-76
2021/10/13 19:09:29;;;;;;;1.73;1.20;;;;;;;10.65;63.91;99834.44;5065770;28;41724;-76
2021/10/13 19:11:58;;;;;;;1.00;1.00;;;;;;;10.63;64.32;99833.69;5068222;28;43416;-76
2021/10/13 19:14:26;;;;;;;1.27;1.03;;;;;;;10.62;64.10;99845.22;5066102;28;42557;-76
2021/10/13 19:16:54;;;;;;;1.07;0.90;;;;;;;10.59;64.32;99845.34;5067382;28;39556;-76
2021/10/13 19:19:23;;;;;;;1.07;0.80;;;;;;;10.48;64.33;99837.91;5067367;28;41561;-76
2021/10/13 19:21:51;;;;;;;1.93;0.97;;;;;;;10.58;64.32;99852.44;5064865;28;42174;-76
2021/10/13 19:24:19;;;;;;;1.50;1.20;;;;;;;10.61;64.88;99859.41;5048669;28;42494;-76
2021/10/13 19:26:47;;;;;;;1.37;1.03;;;;;;;10.58;64.98;99844.50;5049877;28;38909;-75
2021/10/13 19:29:14;;;;;;;2.60;1.10;;;;;;;10.65;65.12;99860.94;5049348;28;41796;-76
2021/10/13 19:31:42;;;;;;;1.40;1.07;;;;;;;10.57;65.31;99842.78;5068522;28;42674;-77
2021/10/13 19:34:10;;;;;;;1.23;1.13;;;;;;;10.64;65.28;99852.13;5066566;28;41632;-76
2021/10/13 19:36:40;;;;;;;1.30;1.03;;;;;;;10.72;65.76;99865.03;5051643;28;39866;-75
2021/10/13 19:39:08;;;;;;;2.03;1.40;;;;;;;10.74;65.65;99871.13;5050152;28;40781;-76
2021/10/13 19:41:36;;;;;;;1.83;1.10;;;;;;;10.67;65.27;99854.66;5051180;28;41640;-76
2021/10/13 19:44:04;;;;;;;2.33;1.70;;;;;;;10.77;65.62;99870.97;5049918;28;42152;-77
2021/10/13 19:46:32;;;;;;;1.63;1.20;;;;;;;10.76;65.94;99874.53;5067215;28;38918;-76
2021/10/13 19:48:59;;;;;;;2.50;1.50;;;;;;;10.67;65.82;99859.09;5050046;28;40667;-76
2021/10/13 19:51:28;;;;;;;2.63;1.67;;;;;;;10.72;65.89;99876.50;5066103;28;43606;-76